TimePDT,TemperatureF,Dew PointF,Humidity,Sea Level PressureIn,VisibilityMPH,Wind Direction,Wind SpeedMPH,Gust SpeedMPH,PrecipitationIn,Events,Conditions,WindDirDegrees,DateUTC
12:53 AM,57.9,57.0,97,29.89,1.5,NNW,3.5,-,N/A,,Overcast,340,2013-09-14 07:53:00
1:53 AM,57.9,57.0,97,29.89,1.2,Calm,Calm,-,N/A,,Overcast,0,2013-09-14 08:53:00
2:12 AM,57.0,55.9,96,29.89,2.0,Calm,Calm,-,N/A,,Overcast,0,2013-09-14 09:12:00
2:22 AM,57.0,55.9,96,29.89,1.2,NNW,3.5,-,N/A,,Overcast,340,2013-09-14 09:22:00
2:33 AM,57.0,55.9,96,29.89,0.8,Calm,Calm,-,N/A,,Mist,0,2013-09-14 09:33:00
2:53 AM,57.0,55.9,96,29.89,0.8,NNW,3.5,-,N/A,,Mist,340,2013-09-14 09:53:00
3:53 AM,57.0,55.9,96,29.89,0.8,NW,3.5,-,N/A,,Mist,320,2013-09-14 10:53:00
4:01 AM,57.0,55.9,96,29.89,1.2,NW,4.6,-,N/A,,Overcast,320,2013-09-14 11:01:00
4:29 AM,57.0,55.9,96,29.89,2.0,NW,4.6,-,N/A,,Overcast,320,2013-09-14 11:29:00
4:41 AM,57.0,55.9,96,29.89,1.8,NW,3.5,-,N/A,,Overcast,320,2013-09-14 11:41:00
4:53 AM,55.9,55.0,97,29.89,1.2,NW,3.5,-,N/A,,Overcast,320,2013-09-14 11:53:00
5:15 AM,55.9,55.0,97,29.88,2.5,WNW,3.5,-,N/A,,Overcast,300,2013-09-14 12:15:00
5:53 AM,55.9,55.0,97,29.88,1.8,Calm,Calm,-,N/A,,Overcast,0,2013-09-14 12:53:00
6:07 AM,55.9,55.0,97,29.88,2.5,WNW,3.5,-,N/A,,Overcast,300,2013-09-14 13:07:00
6:50 AM,55.4,55.4,100,29.88,3.0,Calm,Calm,-,N/A,,Overcast,0,2013-09-14 13:50:00
6:53 AM,55.9,55.0,97,29.88,3.0,Calm,Calm,-,N/A,,Overcast,0,2013-09-14 13:53:00
7:15 AM,55.9,55.0,97,29.88,1.8,Calm,Calm,-,N/A,,Overcast,0,2013-09-14 14:15:00
7:43 AM,55.9,55.0,97,29.88,2.5,NW,3.5,-,N/A,,Overcast,310,2013-09-14 14:43:00
7:53 AM,55.9,55.0,97,29.88,3.0,WNW,3.5,-,N/A,,Overcast,300,2013-09-14 14:53:00
8:53 AM,57.0,55.9,96,29.88,6.0,Calm,Calm,-,N/A,,Overcast,0,2013-09-14 15:53:00
9:30 AM,55.9,55.0,97,29.88,1.8,Calm,Calm,-,N/A,,Overcast,0,2013-09-14 16:30:00
9:46 AM,55.9,55.0,97,29.88,0.5,North,3.5,-,N/A,Fog,Fog,360,2013-09-14 16:46:00
9:53 AM,55.9,55.0,97,29.88,0.2,NNE,3.5,-,N/A,Fog,Fog,20,2013-09-14 16:53:00
10:08 AM,55.9,55.0,97,29.88,0.5,Calm,Calm,-,N/A,Fog,Fog,0,2013-09-14 17:08:00
10:34 AM,57.0,55.9,96,29.88,0.2,NE,3.5,-,N/A,Fog,Fog,40,2013-09-14 17:34:00
10:53 AM,55.9,55.0,97,29.88,0.2,NNE,4.6,-,N/A,Fog,Fog,30,2013-09-14 17:53:00
11:37 AM,57.0,55.9,96,29.87,1.0,Calm,Calm,-,N/A,,Overcast,0,2013-09-14 18:37:00
11:48 AM,57.2,55.4,94,29.87,3.0,Variable,3.5,-,N/A,,Overcast,0,2013-09-14 18:48:00
11:53 AM,57.0,55.9,96,29.87,3.0,NE,3.5,-,N/A,,Overcast,40,2013-09-14 18:53:00
12:02 PM,57.0,55.9,96,29.87,2.0,NE,3.5,-,N/A,,Overcast,40,2013-09-14 19:02:00
12:15 PM,57.9,55.9,93,29.87,4.0,NNE,4.6,-,N/A,,Overcast,30,2013-09-14 19:15:00
12:53 PM,60.1,55.9,86,29.86,10.0,NE,3.5,-,N/A,,Overcast,50,2013-09-14 19:53:00
1:09 PM,60.1,55.0,83,29.85,10.0,Variable,4.6,-,N/A,,Scattered Clouds,0,2013-09-14 20:09:00
1:53 PM,60.1,55.0,83,29.84,10.0,North,5.8,-,N/A,,Clear,360,2013-09-14 20:53:00
2:53 PM,62.1,55.0,78,29.83,10.0,NNW,4.6,-,N/A,,Clear,330,2013-09-14 21:53:00
3:53 PM,60.1,54.0,80,29.82,10.0,North,4.6,-,N/A,,Clear,350,2013-09-14 22:53:00
4:53 PM,57.0,54.0,89,29.80,10.0,North,3.5,-,N/A,,Clear,360,2013-09-14 23:53:00
5:04 PM,57.9,54.0,87,29.80,6.0,Variable,4.6,-,N/A,,Partly Cloudy,0,2013-09-15 00:04:00
5:17 PM,55.9,54.0,93,29.79,1.8,North,3.5,-,N/A,,Scattered Clouds,360,2013-09-15 00:17:00
5:27 PM,57.9,55.0,90,29.79,3.0,Calm,Calm,-,N/A,,Scattered Clouds,0,2013-09-15 00:27:00
5:53 PM,59.0,54.0,83,29.78,10.0,Calm,Calm,-,N/A,,Clear,0,2013-09-15 00:53:00
6:53 PM,57.0,54.0,89,29.78,10.0,Calm,Calm,-,N/A,,Clear,0,2013-09-15 01:53:00
7:53 PM,54.0,52.0,93,29.77,10.0,Calm,Calm,-,N/A,,Clear,0,2013-09-15 02:53:00
8:46 PM,54.0,52.0,93,29.77,7.0,Calm,Calm,-,N/A,,Scattered Clouds,0,2013-09-15 03:46:00
8:53 PM,54.0,52.0,93,29.78,9.0,Calm,Calm,-,N/A,,Scattered Clouds,0,2013-09-15 03:53:00
9:53 PM,52.0,51.1,97,29.78,5.0,Calm,Calm,-,N/A,,Clear,0,2013-09-15 04:53:00
10:20 PM,54.0,52.0,93,29.77,9.0,Calm,Calm,-,N/A,,Scattered Clouds,0,2013-09-15 05:20:00
10:28 PM,54.0,52.0,93,29.77,10.0,WSW,3.5,-,N/A,,Mostly Cloudy,240,2013-09-15 05:28:00
10:50 PM,53.6,53.6,100,29.77,1.8,WSW,3.5,-,N/A,,Overcast,240,2013-09-15 05:50:00
10:53 PM,54.0,53.1,97,29.77,0.8,SW,3.5,-,N/A,,Overcast,230,2013-09-15 05:53:00
11:35 PM,54.0,53.1,97,29.77,1.2,WSW,3.5,-,N/A,,Overcast,250,2013-09-15 06:35:00
11:49 PM,53.6,53.6,100,29.77,0.5,WNW,4.6,-,N/A,Fog,Fog,290,2013-09-15 06:49:00
11:53 PM,54.0,53.1,97,29.77,0.5,WNW,3.5,-,N/A,Fog,Fog,290,2013-09-15 06:53:00